Terminal Aerodrome Forecast
Issued by NWS Sterling, VA

Current Version | Previous Version | Text Only | Print | Product List | Glossary Off
Versions: 1 2 3 4 5 6 7 8 9 10 11 12 13 14 15 16 17 18 19 20 21 22 23 24 25

000
FTUS41 KLWX 182300
TAFIAD
TAF
KIAD 182322Z 1900/2006 14006KT P6SM BKN050 OVC090
     FM190800 06004KT P6SM SCT015 OVC050
     FM191000 05004KT P6SM SCT015 OVC025
     FM191500 05007KT P6SM SCT025 BKN050
     FM200000 12007KT P6SM BKN090=

USA.gov is the U.S. government's official web portal to all federal, state and local government web resources and services.